Time;durP1;ratioP1;P1;durP2;ratioP2;P2;SDS_P1;SDS_P2;PMS_P1;PMS_P2;Temp;Humidity;BMP_temperature;BMP_pressure;BME280_temperature;BME280_humidity;BME280_pressure;Samples;Min_cycle;Max_cycle;Signal;HPM_P1;HPM_P2
2022/08/21 05:01:17;;;;;;;1.48;1.38;;;;;;;;;;5678129;22;20456;-86
2022/08/21 05:03:44;;;;;;;2.58;1.95;;;;;;;;;;5049479;28;20409;-87
2022/08/21 05:06:13;;;;;;;2.30;2.10;;;;;;;;;;5032348;28;20451;-87
2022/08/21 05:08:40;;;;;;;3.10;2.80;;;;;;;;;;5050750;28;20411;-86
2022/08/21 05:11:06;;;;;;;3.40;3.10;;;;;;;;;;5055207;28;20393;-86
2022/08/21 05:13:32;;;;;;;3.75;3.00;;;;;;;;;;5053980;28;20439;-85
2022/08/21 05:15:58;;;;;;;3.90;3.10;;;;;;;;;;5050056;28;20389;-86
2022/08/21 05:18:25;;;;;;;4.50;3.50;;;;;;;;;;5045695;28;20388;-86
2022/08/21 05:20:51;;;;;;;3.85;3.50;;;;;;;;;;5051345;28;20848;-85
2022/08/21 05:23:17;;;;;;;4.13;3.72;;;;;;;;;;5055010;28;20468;-87
2022/08/21 05:25:43;;;;;;;4.20;3.63;;;;;;;;;;5054800;28;20851;-86
2022/08/21 05:28:10;;;;;;;5.10;4.70;;;;;;;;;;5054717;28;20892;-84
2022/08/21 05:30:36;;;;;;;5.88;5.43;;;;;;;;;;5052660;28;20390;-87
2022/08/21 05:33:03;;;;;;;6.72;6.18;;;;;;;;;;5054630;28;20400;-86
2022/08/21 05:35:29;;;;;;;6.40;5.90;;;;;;;;;;5054767;28;20373;-87
2022/08/21 05:37:56;;;;;;;6.45;5.85;;;;;;;;;;5054733;28;20452;-86
2022/08/21 05:40:23;;;;;;;6.47;5.47;;;;;;;;;;5054647;28;20385;-83
2022/08/21 05:42:50;;;;;;;5.82;5.18;;;;;;;;;;5054634;28;20392;-87
2022/08/21 05:45:16;;;;;;;6.57;5.85;;;;;;;;;;5054647;28;20397;-86
2022/08/21 05:47:42;;;;;;;6.95;5.90;;;;;;;;;;5053953;28;20394;-88
2022/08/21 05:50:08;;;;;;;6.73;5.63;;;;;;;;;;5053641;28;20452;-86
2022/08/21 05:52:34;;;;;;;6.53;5.50;;;;;;;;;;5053105;28;20431;-84
2022/08/21 05:55:00;;;;;;;7.35;5.95;;;;;;;;;;5054360;28;20380;-90
2022/08/21 05:57:27;;;;;;;7.15;5.72;;;;;;;;;;5036796;28;20378;-87
2022/08/21 05:59:53;;;;;;;6.60;5.90;;;;;;;;;;5054328;28;20420;-88
2022/08/21 06:02:19;;;;;;;5.30;4.80;;;;;;;;;;5054107;28;20432;-88
2022/08/21 06:04:45;;;;;;;6.70;5.47;;;;;;;;;;5054362;28;20389;-86
2022/08/21 06:07:11;;;;;;;6.63;5.70;;;;;;;;;;5054124;28;20867;-85
2022/08/21 06:09:37;;;;;;;6.33;5.20;;;;;;;;;;5054156;28;20523;-86
2022/08/21 06:12:11;;;;;;;6.65;5.25;;;;;;;;;;5053933;28;20401;-87
2022/08/21 06:14:38;;;;;;;6.07;5.47;;;;;;;;;;5054080;28;20390;-86
2022/08/21 06:17:08;;;;;;;5.90;5.07;;;;;;;;;;5053920;28;20881;-87
2022/08/21 06:19:35;;;;;;;6.27;4.90;;;;;;;;;;5047314;28;20402;-86
2022/08/21 06:22:01;;;;;;;6.15;5.10;;;;;;;;;;5043775;28;20799;-86
2022/08/21 06:24:27;;;;;;;9.23;6.15;;;;;;;;;;5049814;28;20501;-87
2022/08/21 06:26:53;;;;;;;8.15;5.90;;;;;;;;;;5049476;28;20394;-87
2022/08/21 06:29:19;;;;;;;7.45;5.57;;;;;;;;;;5052871;28;20433;-89
2022/08/21 06:31:45;;;;;;;7.35;6.03;;;;;;;;;;5053460;28;20409;-90
2022/08/21 06:34:12;;;;;;;8.13;5.80;;;;;;;;;;5053509;28;20377;-88
2022/08/21 06:36:38;;;;;;;9.10;6.20;;;;;;;;;;5051928;28;20923;-89
2022/08/21 06:39:04;;;;;;;6.70;5.90;;;;;;;;;;5051086;28;20472;-91
2022/08/21 06:41:30;;;;;;;6.63;5.93;;;;;;;;;;5049891;28;20758;-89
2022/08/21 06:43:56;;;;;;;6.10;5.50;;;;;;;;;;5047881;28;20381;-91
2022/08/21 06:46:23;;;;;;;5.97;5.38;;;;;;;;;;5048971;28;20416;-90
2022/08/21 06:48:49;;;;;;;5.88;5.35;;;;;;;;;;5053567;28;20381;-89
2022/08/21 06:51:15;;;;;;;6.78;5.75;;;;;;;;;;5052877;28;20480;-90
2022/08/21 06:53:41;;;;;;;5.70;5.10;;;;;;;;;;5051329;28;20408;-90
2022/08/21 06:56:07;;;;;;;7.00;5.80;;;;;;;;;;5038838;28;20391;-89
2022/08/21 06:58:34;;;;;;;6.00;5.40;;;;;;;;;;5052525;28;20374;-90
2022/08/21 07:01:00;;;;;;;5.53;5.03;;;;;;;;;;5052505;28;20401;-89
2022/08/21 07:03:42;;;;;;;6.47;4.95;;;;;;;;;;5053014;28;20390;-89
2022/08/21 07:06:09;;;;;;;4.95;4.55;;;;;;;;;;5053113;28;20385;-89
2022/08/21 07:08:36;;;;;;;8.70;7.90;;;;;;;;;;5039287;28;20388;-90
2022/08/21 07:11:02;;;;;;;7.18;6.60;;;;;;;;;;5052754;28;20373;-90
2022/08/21 07:13:28;;;;;;;5.65;5.25;;;;;;;;;;5053467;28;20382;-89
2022/08/21 07:15:55;;;;;;;5.57;5.17;;;;;;;;;;5053070;28;20383;-89
2022/08/21 07:18:21;;;;;;;5.05;4.65;;;;;;;;;;5041620;28;20445;-89
2022/08/21 07:20:47;;;;;;;5.47;5.03;;;;;;;;;;5046351;28;20634;-89
2022/08/21 07:23:34;;;;;;;4.88;4.45;;;;;;;;;;5050666;28;20382;-89
2022/08/21 07:26:00;;;;;;;5.10;4.75;;;;;;;;;;5051274;28;20388;-89
2022/08/21 07:28:26;;;;;;;4.85;4.45;;;;;;;;;;5051478;28;20460;-89
2022/08/21 07:30:57;;;;;;;4.10;3.80;;;;;;;;;;5051202;28;20724;-89
2022/08/21 07:33:23;;;;;;;5.00;4.60;;;;;;;;;;5051984;28;20621;-88
2022/08/21 07:35:49;;;;;;;5.22;4.82;;;;;;;;;;5052466;28;20456;-86
2022/08/21 07:38:15;;;;;;;4.90;4.60;;;;;;;;;;5051253;28;20928;-90
2022/08/21 07:40:41;;;;;;;4.57;4.28;;;;;;;;;;5051770;28;20389;-91
2022/08/21 07:43:08;;;;;;;4.53;4.13;;;;;;;;;;5052436;28;20425;-90
2022/08/21 07:45:34;;;;;;;4.90;4.50;;;;;;;;;;5053325;28;20416;-89
2022/08/21 07:48:00;;;;;;;4.78;4.47;;;;;;;;;;5052289;28;20405;-90
2022/08/21 07:50:26;;;;;;;5.20;4.80;;;;;;;;;;5051975;28;20895;-84
2022/08/21 07:52:53;;;;;;;5.30;4.80;;;;;;;;;;5051898;28;20436;-87
2022/08/21 07:55:20;;;;;;;5.40;5.00;;;;;;;;;;5049810;28;20387;-85
2022/08/21 07:57:46;;;;;;;5.70;5.30;;;;;;;;;;5050898;28;20378;-85
2022/08/21 08:00:14;;;;;;;6.57;5.97;;;;;;;;;;5048243;28;20399;-85
2022/08/21 08:02:40;;;;;;;6.75;6.25;;;;;;;;;;5051079;28;20385;-85
2022/08/21 08:05:09;;;;;;;6.70;6.20;;;;;;;;;;5051396;28;20385;-85
2022/08/21 08:07:35;;;;;;;6.55;6.05;;;;;;;;;;5052374;28;20408;-86
2022/08/21 08:10:01;;;;;;;6.72;6.15;;;;;;;;;;5051688;28;20393;-86
2022/08/21 08:12:29;;;;;;;6.53;6.03;;;;;;;;;;5050906;28;20400;-85
2022/08/21 08:14:58;;;;;;;6.28;5.78;;;;;;;;;;5039112;28;20391;-86
2022/08/21 08:17:25;;;;;;;7.30;6.60;;;;;;;;;;5036003;28;20851;-89
2022/08/21 08:19:51;;;;;;;7.15;6.55;;;;;;;;;;5042217;28;20406;-90
2022/08/21 08:22:21;;;;;;;6.38;5.88;;;;;;;;;;5048474;28;20389;-88
2022/08/21 08:24:48;;;;;;;6.45;5.95;;;;;;;;;;5051165;28;20440;-88
2022/08/21 08:27:14;;;;;;;6.17;5.67;;;;;;;;;;5050965;28;20427;-88
2022/08/21 08:29:41;;;;;;;6.40;5.80;;;;;;;;;;5051976;28;20464;-88
2022/08/21 08:32:07;;;;;;;6.32;5.82;;;;;;;;;;5048357;28;20436;-90
2022/08/21 08:34:34;;;;;;;6.47;5.88;;;;;;;;;;5052096;28;20734;-89
2022/08/21 08:37:00;;;;;;;6.40;5.90;;;;;;;;;;5051503;28;20742;-87
2022/08/21 08:39:26;;;;;;;6.95;6.45;;;;;;;;;;5051725;28;20380;-89
2022/08/21 08:41:59;;;;;;;6.68;6.15;;;;;;;;;;5051695;28;20387;-90
2022/08/21 08:44:25;;;;;;;6.28;5.78;;;;;;;;;;5051825;28;20400;-89
2022/08/21 08:46:52;;;;;;;6.43;5.93;;;;;;;;;;5046845;28;20888;-89
2022/08/21 08:49:24;;;;;;;5.70;5.30;;;;;;;;;;5047005;28;20393;-90
2022/08/21 08:51:51;;;;;;;5.40;5.00;;;;;;;;;;5033711;28;20421;-89
2022/08/21 08:54:25;;;;;;;5.28;4.88;;;;;;;;;;5033376;28;20426;-89
2022/08/21 08:56:54;;;;;;;5.90;5.40;;;;;;;;;;5031830;28;20436;-90
2022/08/21 08:59:23;;;;;;;6.05;5.55;;;;;;;;;;5034910;28;20402;-90
2022/08/21 09:01:51;;;;;;;4.90;4.50;;;;;;;;;;5015084;28;20517;-91
2022/08/21 09:04:21;;;;;;;5.60;5.20;;;;;;;;;;5037104;28;20890;-89
2022/08/21 09:06:53;;;;;;;5.30;4.90;;;;;;;;;;5036498;28;20411;-90
2022/08/21 09:09:37;;;;;;;5.28;4.88;;;;;;;;;;5023227;28;20439;-89
2022/08/21 09:12:06;;;;;;;5.18;4.78;;;;;;;;;;5025305;28;20402;-89
2022/08/21 09:14:53;;;;;;;4.78;4.43;;;;;;;;;;5044754;28;20374;-90
2022/08/21 09:17:38;;;;;;;4.40;4.10;;;;;;;;;;5040074;28;20783;-90
2022/08/21 09:20:13;;;;;;;4.70;4.30;;;;;;;;;;5022378;28;20421;-91
2022/08/21 09:22:49;;;;;;;4.68;4.28;;;;;;;;;;5025601;28;20408;-89
2022/08/21 09:25:42;;;;;;;3.90;3.60;;;;;;;;;;5050288;28;20389;-89
2022/08/21 09:28:11;;;;;;;5.17;4.63;;;;;;;;;;4996387;28;20517;-90
2022/08/21 09:30:37;;;;;;;3.88;3.58;;;;;;;;;;5050222;28;20416;-89
2022/08/21 09:33:03;;;;;;;4.05;3.65;;;;;;;;;;5054535;28;20425;-88
2022/08/21 09:35:29;;;;;;;4.07;3.78;;;;;;;;;;5035540;28;20420;-88
2022/08/21 09:38:00;;;;;;;4.05;3.50;;;;;;;;;;5054254;28;20859;-88
2022/08/21 09:40:32;;;;;;;4.10;3.70;;;;;;;;;;5050503;28;20389;-88
2022/08/21 09:43:00;;;;;;;4.53;3.30;;;;;;;;;;5041794;28;20484;-88
2022/08/21 09:45:27;;;;;;;3.75;3.40;;;;;;;;;;5046847;28;20485;-87
2022/08/21 09:47:53;;;;;;;4.15;3.47;;;;;;;;;;5049331;28;20515;-85
2022/08/21 09:50:21;;;;;;;4.47;3.45;;;;;;;;;;5050918;28;20377;-88
2022/08/21 09:52:49;;;;;;;4.13;3.70;;;;;;;;;;5053752;28;20401;-85
2022/08/21 09:58:06;;;;;;;3.35;3.00;;;;;;;;;;5053156;28;20388;-85
2022/08/21 10:00:33;;;;;;;3.63;2.95;;;;;;;;;;5052809;28;20732;-86
2022/08/21 10:03:10;;;;;;;3.45;3.15;;;;;;;;;;5052954;28;20385;-86
2022/08/21 10:05:38;;;;;;;4.03;3.20;;;;;;;;;;5054279;28;20385;-85
2022/08/21 10:08:05;;;;;;;4.70;3.00;;;;;;;;;;5054295;28;20377;-82
2022/08/21 10:10:32;;;;;;;4.33;2.90;;;;;;;;;;5054267;28;20846;-85
2022/08/21 10:13:17;;;;;;;4.70;2.80;;;;;;;;;;5054046;28;20409;-87
2022/08/21 10:16:02;;;;;;;4.97;2.95;;;;;;;;;;5052780;28;20755;-85
2022/08/21 10:18:34;;;;;;;2.78;2.03;;;;;;;;;;5054418;28;20416;-86
2022/08/21 10:21:00;;;;;;;3.80;2.10;;;;;;;;;;5054165;28;20386;-86
2022/08/21 10:23:36;;;;;;;4.68;2.30;;;;;;;;;;5053633;28;20393;-86
2022/08/21 10:26:01;;;;;;;3.22;2.20;;;;;;;;;;5054136;28;20468;-87
2022/08/21 10:28:33;;;;;;;2.88;2.08;;;;;;;;;;5053905;28;20483;-83
2022/08/21 10:31:21;;;;;;;3.10;1.77;;;;;;;;;;5053822;28;20376;-86
2022/08/21 10:34:07;;;;;;;4.00;1.42;;;;;;;;;;5052853;28;20390;-86
2022/08/21 10:36:36;;;;;;;2.03;1.30;;;;;;;;;;5053642;28;20431;-85
2022/08/21 10:39:18;;;;;;;3.92;1.80;;;;;;;;;;5050348;28;20369;-86
2022/08/21 10:41:50;;;;;;;2.42;1.70;;;;;;;;;;5052623;28;20925;-87
2022/08/21 10:44:30;;;;;;;2.80;1.60;;;;;;;;;;5052574;28;20484;-87
2022/08/21 10:47:16;;;;;;;4.15;1.42;;;;;;;;;;5053713;28;20846;-87
2022/08/21 10:49:44;;;;;;;2.22;1.50;;;;;;;;;;5053035;28;20373;-85
2022/08/21 10:52:29;;;;;;;1.80;1.20;;;;;;;;;;5053069;28;20921;-87
2022/08/21 10:55:03;;;;;;;1.83;1.20;;;;;;;;;;5040127;28;20377;-86
2022/08/21 10:57:48;;;;;;;2.03;0.80;;;;;;;;;;5053003;28;20855;-85
2022/08/21 11:00:16;;;;;;;1.58;0.95;;;;;;;;;;5053008;28;20394;-86
2022/08/21 11:03:03;;;;;;;1.80;1.10;;;;;;;;;;5052864;28;20386;-84
2022/08/21 11:05:43;;;;;;;1.55;0.90;;;;;;;;;;5052749;28;20384;-89
2022/08/21 11:08:17;;;;;;;1.95;1.00;;;;;;;;;;5052385;28;20393;-87
2022/08/21 11:10:48;;;;;;;1.58;1.10;;;;;;;;;;5052643;28;20390;-85
2022/08/21 11:13:18;;;;;;;1.83;1.08;;;;;;;;;;5052555;28;20975;-85
2022/08/21 11:15:49;;;;;;;2.15;1.20;;;;;;;;;;5053008;28;20374;-85
2022/08/21 11:18:35;;;;;;;1.88;1.15;;;;;;;;;;5052817;28;20467;-85
2022/08/21 11:21:16;;;;;;;3.88;1.20;;;;;;;;;;5051513;28;20744;-89
2022/08/21 11:23:45;;;;;;;1.80;1.17;;;;;;;;;;5049798;28;20464;-85
2022/08/21 11:26:17;;;;;;;2.53;1.10;;;;;;;;;;5051452;28;20382;-89
2022/08/21 11:28:56;;;;;;;2.80;1.10;;;;;;;;;;5052265;28;20901;-87
2022/08/21 11:31:31;;;;;;;1.27;0.95;;;;;;;;;;5050878;28;20389;-88
2022/08/21 11:34:04;;;;;;;2.10;1.08;;;;;;;;;;5051023;28;20382;-88
2022/08/21 11:36:39;;;;;;;2.85;1.10;;;;;;;;;;5028656;28;20863;-88
2022/08/21 11:39:10;;;;;;;1.50;1.10;;;;;;;;;;5050754;28;20373;-90
2022/08/21 11:41:39;;;;;;;1.95;0.98;;;;;;;;;;5052144;28;20384;-88
2022/08/21 11:44:24;;;;;;;2.40;1.17;;;;;;;;;;5051908;28;20465;-89
2022/08/21 11:46:53;;;;;;;2.38;1.10;;;;;;;;;;5052733;28;20389;-88
2022/08/21 11:49:22;;;;;;;2.20;0.88;;;;;;;;;;5052670;28;20390;-88
2022/08/21 11:52:08;;;;;;;1.80;0.90;;;;;;;;;;5052074;28;20480;-88
2022/08/21 11:54:34;;;;;;;1.85;1.00;;;;;;;;;;5052275;28;20375;-88
2022/08/21 11:57:14;;;;;;;1.23;0.75;;;;;;;;;;5052547;28;20370;-85
2022/08/21 11:59:53;;;;;;;1.52;0.80;;;;;;;;;;5052302;28;20381;-85
2022/08/21 12:02:21;;;;;;;1.42;0.80;;;;;;;;;;5051677;28;20404;-88
2022/08/21 12:04:54;;;;;;;1.20;0.80;;;;;;;;;;5052174;28;20393;-87
2022/08/21 12:07:49;;;;;;;1.27;0.77;;;;;;;;;;5051419;28;20388;-89
2022/08/21 12:10:16;;;;;;;1.10;0.77;;;;;;;;;;5030032;28;20874;-90
2022/08/21 12:12:43;;;;;;;1.17;0.80;;;;;;;;;;5024562;28;20439;-89
2022/08/21 12:15:22;;;;;;;1.13;0.70;;;;;;;;;;5050949;28;20735;-91
2022/08/21 12:17:56;;;;;;;0.93;0.70;;;;;;;;;;5050642;28;20369;-90
2022/08/21 12:20:22;;;;;;;1.27;0.63;;;;;;;;;;5050982;28;20366;-90
2022/08/21 12:22:52;;;;;;;1.33;0.80;;;;;;;;;;5050582;28;20392;-90
2022/08/21 12:25:19;;;;;;;1.50;0.80;;;;;;;;;;5050374;28;20381;-89
2022/08/21 12:27:53;;;;;;;1.30;0.80;;;;;;;;;;5051757;28;20385;-90
2022/08/21 12:30:38;;;;;;;2.25;0.80;;;;;;;;;;5049990;28;20393;-90
2022/08/21 12:33:05;;;;;;;2.70;0.90;;;;;;;;;;5050389;28;20766;-90
2022/08/21 12:35:39;;;;;;;1.17;0.80;;;;;;;;;;5051565;28;20476;-91
2022/08/21 12:38:13;;;;;;;2.55;0.70;;;;;;;;;;5050512;28;20374;-91
2022/08/21 12:40:41;;;;;;;1.15;0.88;;;;;;;;;;5051829;28;20385;-88
2022/08/21 12:43:07;;;;;;;1.25;0.80;;;;;;;;;;5051553;28;20389;-89
2022/08/21 12:45:44;;;;;;;0.75;0.70;;;;;;;;;;5052213;28;20385;-89
2022/08/21 12:48:19;;;;;;;1.70;0.70;;;;;;;;;;5047271;28;20377;-89
2022/08/21 12:51:05;;;;;;;1.00;0.70;;;;;;;;;;5045130;28;20878;-89
2022/08/21 12:53:52;;;;;;;1.30;0.80;;;;;;;;;;5018859;28;20819;-90
2022/08/21 12:56:19;;;;;;;1.10;0.70;;;;;;;;;;5032781;28;20438;-89
2022/08/21 12:58:47;;;;;;;2.33;1.10;;;;;;;;;;5056584;28;20397;-90
2022/08/21 13:01:34;;;;;;;1.23;0.82;;;;;;;;;;5051713;28;20400;-90
2022/08/21 13:04:02;;;;;;;1.50;0.80;;;;;;;;;;5025754;28;20433;-89
2022/08/21 13:06:31;;;;;;;2.00;0.80;;;;;;;;;;5050710;28;20394;-89
2022/08/21 13:08:59;;;;;;;2.03;0.80;;;;;;;;;;5046387;28;20438;-89
2022/08/21 13:11:25;;;;;;;1.27;0.60;;;;;;;;;;5052358;28;20723;-91
2022/08/21 13:13:52;;;;;;;1.27;0.70;;;;;;;;;;5055304;28;20483;-90
2022/08/21 13:16:20;;;;;;;3.03;2.75;;;;;;;;;;5055169;28;20392;-92
2022/08/21 13:18:57;;;;;;;1.10;0.80;;;;;;;;;;5055604;28;20378;-93
2022/08/21 13:21:27;;;;;;;1.85;0.70;;;;;;;;;;5039893;28;20382;-92
2022/08/21 13:23:53;;;;;;;0.60;0.60;;;;;;;;;;5051986;28;20843;-91
2022/08/21 13:26:21;;;;;;;1.25;0.70;;;;;;;;;;5054117;28;20381;-92
2022/08/21 13:28:48;;;;;;;0.98;0.65;;;;;;;;;;5018740;28;20426;-92
2022/08/21 13:31:20;;;;;;;1.20;0.70;;;;;;;;;;5025624;28;20472;-92
2022/08/21 13:33:48;;;;;;;1.25;0.68;;;;;;;;;;5050111;28;20373;-91
2022/08/21 13:36:17;;;;;;;1.48;0.82;;;;;;;;;;5030614;28;20436;-92
2022/08/21 13:38:45;;;;;;;2.10;0.75;;;;;;;;;;5030830;28;20378;-91
2022/08/21 13:41:21;;;;;;;0.98;0.73;;;;;;;;;;5049440;28;20917;-91
2022/08/21 13:43:51;;;;;;;1.65;0.80;;;;;;;;;;5039852;28;20418;-91
2022/08/21 13:46:18;;;;;;;2.10;0.80;;;;;;;;;;5041254;28;20518;-92
2022/08/21 13:48:44;;;;;;;0.98;0.70;;;;;;;;;;5050454;28;20465;-92
2022/08/21 13:51:10;;;;;;;1.85;0.80;;;;;;;;;;5034578;28;20754;-91
2022/08/21 13:53:45;;;;;;;2.13;0.85;;;;;;;;;;5060511;28;20394;-91
2022/08/21 13:56:22;;;;;;;1.83;0.80;;;;;;;;;;5039414;28;20386;-91
2022/08/21 13:58:48;;;;;;;1.70;1.00;;;;;;;;;;5050148;28;20434;-90
2022/08/21 14:01:39;;;;;;;2.58;0.90;;;;;;;;;;5050642;28;20397;-92
2022/08/21 14:04:16;;;;;;;1.50;0.80;;;;;;;;;;5049756;28;20388;-91
2022/08/21 14:06:43;;;;;;;1.75;0.82;;;;;;;;;;5024521;28;20385;-91
2022/08/21 14:09:15;;;;;;;1.42;1.00;;;;;;;;;;5041861;28;20418;-92
2022/08/21 14:11:41;;;;;;;1.20;0.60;;;;;;;;;;5046807;28;20402;-93
2022/08/21 14:14:16;;;;;;;1.30;0.80;;;;;;;;;;5033171;28;20879;-92
2022/08/21 14:16:44;;;;;;;1.02;0.80;;;;;;;;;;5052343;28;20389;-92
2022/08/21 14:19:21;;;;;;;2.92;0.93;;;;;;;;;;5046658;28;20391;-91
2022/08/21 14:21:47;;;;;;;1.48;0.90;;;;;;;;;;5053768;28;20443;-92
2022/08/21 14:24:13;;;;;;;1.10;0.82;;;;;;;;;;5054277;28;20870;-92
2022/08/21 14:26:56;;;;;;;1.23;0.77;;;;;;;;;;5054334;28;20381;-92
2022/08/21 14:29:25;;;;;;;0.97;0.70;;;;;;;;;;5054077;28;20386;-91
2022/08/21 14:31:56;;;;;;;1.40;0.80;;;;;;;;;;5053529;28;20431;-92
2022/08/21 14:34:22;;;;;;;0.85;0.82;;;;;;;;;;5039981;28;20389;-91
2022/08/21 14:36:49;;;;;;;1.40;0.80;;;;;;;;;;5042704;28;20883;-92
2022/08/21 14:39:15;;;;;;;1.05;0.77;;;;;;;;;;5048116;28;20383;-91
2022/08/21 14:41:42;;;;;;;1.80;0.88;;;;;;;;;;5043384;28;20377;-93
2022/08/21 14:44:09;;;;;;;1.23;0.80;;;;;;;;;;5053444;28;20396;-92
2022/08/21 14:46:35;;;;;;;1.75;0.95;;;;;;;;;;5027360;28;20379;-91
2022/08/21 14:49:02;;;;;;;1.00;0.80;;;;;;;;;;5048032;28;20382;-91
2022/08/21 14:51:28;;;;;;;1.08;0.80;;;;;;;;;;5053495;28;20932;-92
2022/08/21 14:53:54;;;;;;;2.40;0.90;;;;;;;;;;5053820;28;20385;-91
2022/08/21 14:56:20;;;;;;;1.10;0.80;;;;;;;;;;5053528;28;20408;-92
2022/08/21 14:58:49;;;;;;;1.33;1.00;;;;;;;;;;5053772;28;20420;-91
2022/08/21 15:01:18;;;;;;;1.08;0.93;;;;;;;;;;5052896;28;20533;-93
2022/08/21 15:03:44;;;;;;;0.65;0.63;;;;;;;;;;5053620;28;20417;-92
2022/08/21 15:06:10;;;;;;;2.30;0.80;;;;;;;;;;5053432;28;20432;-91
2022/08/21 15:08:36;;;;;;;1.25;0.90;;;;;;;;;;5046370;28;20736;-92
2022/08/21 15:11:03;;;;;;;1.00;0.85;;;;;;;;;;5046130;28;20882;-92
2022/08/21 15:13:30;;;;;;;1.53;0.70;;;;;;;;;;5047836;28;20399;-92
2022/08/21 15:15:56;;;;;;;1.95;0.70;;;;;;;;;;5039946;28;20433;-92
2022/08/21 15:18:27;;;;;;;1.70;0.80;;;;;;;;;;5042183;28;20398;-92
2022/08/21 15:20:53;;;;;;;1.02;0.80;;;;;;;;;;5041571;28;20383;-92
2022/08/21 15:23:19;;;;;;;1.00;0.70;;;;;;;;;;5049174;28;20439;-92
2022/08/21 15:25:47;;;;;;;1.75;0.80;;;;;;;;;;5053071;28;20388;-92
2022/08/21 15:28:13;;;;;;;1.00;0.80;;;;;;;;;;5052726;28;20374;-92
2022/08/21 15:30:40;;;;;;;1.45;0.90;;;;;;;;;;5052663;28;20905;-92
2022/08/21 15:33:06;;;;;;;2.00;0.80;;;;;;;;;;5052653;28;20455;-92
2022/08/21 15:35:32;;;;;;;1.27;0.90;;;;;;;;;;5052863;28;20380;-92
2022/08/21 15:37:58;;;;;;;1.20;1.00;;;;;;;;;;5046128;28;20783;-92
2022/08/21 15:40:24;;;;;;;1.00;0.73;;;;;;;;;;5045887;28;20465;-91
2022/08/21 15:42:52;;;;;;;2.17;1.02;;;;;;;;;;5038508;28;20369;-92
2022/08/21 15:45:19;;;;;;;1.10;0.90;;;;;;;;;;5052715;28;20400;-93
2022/08/21 15:47:45;;;;;;;2.42;1.08;;;;;;;;;;5049210;28;20383;-91
2022/08/21 15:50:12;;;;;;;1.65;0.75;;;;;;;;;;5042201;28;20373;-91
2022/08/21 15:52:38;;;;;;;2.15;1.00;;;;;;;;;;5038500;28;20753;-91
2022/08/21 15:55:05;;;;;;;1.42;0.75;;;;;;;;;;5044896;28;20390;-92
2022/08/21 15:57:31;;;;;;;2.90;0.98;;;;;;;;;;5046541;28;20415;-92
2022/08/21 16:00:03;;;;;;;1.60;0.90;;;;;;;;;;5052843;28;20401;-92
2022/08/21 16:02:34;;;;;;;1.95;0.80;;;;;;;;;;5068111;22;20906;-91
2022/08/21 16:05:20;;;;;;;1.08;0.80;;;;;;;;;;5052339;28;20932;-92
2022/08/21 16:07:50;;;;;;;2.38;1.00;;;;;;;;;;5052337;28;20377;-91
2022/08/21 16:10:17;;;;;;;2.00;0.97;;;;;;;;;;5052426;28;20378;-91
2022/08/21 16:12:48;;;;;;;1.63;0.80;;;;;;;;;;5052264;28;20397;-92
2022/08/21 16:15:16;;;;;;;1.58;0.82;;;;;;;;;;5052539;28;20409;-92
2022/08/21 16:17:47;;;;;;;1.30;0.90;;;;;;;;;;5052206;28;20370;-92
2022/08/21 16:20:16;;;;;;;2.92;0.90;;;;;;;;;;5052390;28;20382;-92
2022/08/21 16:22:42;;;;;;;1.00;0.80;;;;;;;;;;5052141;28;20391;-92
2022/08/21 16:25:13;;;;;;;2.00;1.00;;;;;;;;;;5052224;28;20431;-91
2022/08/21 16:27:40;;;;;;;1.23;0.82;;;;;;;;;;5052480;28;20739;-92
2022/08/21 16:30:06;;;;;;;0.90;0.73;;;;;;;;;;5052006;28;20759;-91
2022/08/21 16:32:34;;;;;;;1.13;0.88;;;;;;;;;;5056106;28;20404;-92
2022/08/21 16:35:00;;;;;;;1.38;0.85;;;;;;;;;;5056445;28;20365;-92
2022/08/21 16:37:29;;;;;;;0.90;0.90;;;;;;;;;;5056075;28;20378;-92
2022/08/21 16:39:58;;;;;;;0.88;0.75;;;;;;;;;;5056344;28;20377;-92
2022/08/21 16:42:29;;;;;;;1.25;1.13;;;;;;;;;;5055859;28;20392;-92
2022/08/21 16:45:06;;;;;;;2.17;1.02;;;;;;;;;;5056355;28;20366;-92
2022/08/21 16:47:52;;;;;;;2.55;1.05;;;;;;;;;;5056452;28;20375;-92
2022/08/21 16:50:22;;;;;;;1.45;0.90;;;;;;;;;;5056203;28;20380;-92
2022/08/21 16:52:48;;;;;;;1.10;0.80;;;;;;;;;;5055178;28;20409;-91
2022/08/21 16:58:14;;;;;;;1.92;0.98;;;;;;;;;;5028164;28;20384;-92
2022/08/21 17:00:40;;;;;;;1.70;1.20;;;;;;;;;;5055544;28;20416;-92
2022/08/21 17:03:06;;;;;;;1.90;1.40;;;;;;;;;;5055901;28;20416;-92
2022/08/21 17:05:32;;;;;;;1.50;1.40;;;;;;;;;;5037746;28;20391;-92
2022/08/21 17:07:59;;;;;;;2.22;1.40;;;;;;;;;;5055777;28;20381;-93
2022/08/21 17:10:25;;;;;;;2.35;1.27;;;;;;;;;;5055147;28;20378;-92
2022/08/21 17:12:55;;;;;;;0.95;0.93;;;;;;;;;;5037447;28;20468;-92
2022/08/21 17:15:22;;;;;;;1.55;1.00;;;;;;;;;;5038017;28;20381;-92
2022/08/21 17:17:52;;;;;;;2.17;0.98;;;;;;;;;;5037568;28;20484;-92
2022/08/21 17:20:18;;;;;;;0.70;0.70;;;;;;;;;;5055209;28;20883;-92
2022/08/21 17:22:44;;;;;;;1.30;0.93;;;;;;;;;;5054787;28;20858;-92
2022/08/21 17:25:10;;;;;;;2.35;1.02;;;;;;;;;;5055415;28;20436;-92
2022/08/21 17:27:38;;;;;;;1.20;0.90;;;;;;;;;;5055437;28;20377;-92
2022/08/21 17:30:07;;;;;;;1.25;0.80;;;;;;;;;;5055234;28;20377;-92
2022/08/21 17:32:33;;;;;;;1.10;1.00;;;;;;;;;;5054797;28;20400;-91
2022/08/21 17:35:03;;;;;;;1.60;0.90;;;;;;;;;;5055170;28;20489;-92
2022/08/21 17:37:29;;;;;;;1.90;0.90;;;;;;;;;;5055115;28;20373;-91
2022/08/21 17:39:55;;;;;;;2.50;1.17;;;;;;;;;;5055172;28;20369;-92
2022/08/21 17:42:22;;;;;;;2.30;1.10;;;;;;;;;;5053748;28;20389;-92
2022/08/21 17:44:58;;;;;;;3.33;1.30;;;;;;;;;;5054946;28;20507;-92
2022/08/21 17:47:25;;;;;;;2.10;1.20;;;;;;;;;;5054879;28;20385;-91
2022/08/21 17:49:51;;;;;;;2.27;1.10;;;;;;;;;;5054840;28;20392;-91
2022/08/21 17:52:17;;;;;;;1.83;1.15;;;;;;;;;;5054520;28;20424;-92
2022/08/21 17:54:43;;;;;;;1.85;1.10;;;;;;;;;;5054579;28;20373;-91
2022/08/21 17:57:16;;;;;;;2.08;0.90;;;;;;;;;;5054869;28;20427;-92
2022/08/21 17:59:45;;;;;;;2.20;1.20;;;;;;;;;;5054822;28;20399;-92
2022/08/21 18:02:15;;;;;;;2.22;1.20;;;;;;;;;;5036288;28;20452;-91
2022/08/21 18:04:41;;;;;;;1.70;1.40;;;;;;;;;;5036848;28;20393;-91
2022/08/21 18:07:13;;;;;;;2.17;1.23;;;;;;;;;;5054915;28;20385;-92
2022/08/21 18:09:39;;;;;;;2.35;1.10;;;;;;;;;;5054673;28;20715;-92
2022/08/21 18:12:05;;;;;;;2.08;1.30;;;;;;;;;;5054145;28;20427;-92
2022/08/21 18:14:33;;;;;;;1.35;0.90;;;;;;;;;;5054422;28;20781;-92
2022/08/21 18:16:59;;;;;;;3.00;1.15;;;;;;;;;;5023366;28;20426;-92
2022/08/21 18:19:27;;;;;;;2.60;1.08;;;;;;;;;;5054278;28;20408;-91
2022/08/21 18:21:56;;;;;;;2.10;1.23;;;;;;;;;;5053864;28;20456;-92
2022/08/21 18:24:23;;;;;;;1.52;1.10;;;;;;;;;;5036868;28;20739;-91
2022/08/21 18:26:52;;;;;;;1.90;1.10;;;;;;;;;;5054185;28;20380;-91
2022/08/21 18:29:19;;;;;;;2.97;1.17;;;;;;;;;;5054143;28;20384;-91
2022/08/21 18:31:46;;;;;;;1.70;0.82;;;;;;;;;;5053540;28;20443;-92
2022/08/21 18:34:17;;;;;;;1.10;1.00;;;;;;;;;;5054069;28;20377;-91
2022/08/21 18:36:43;;;;;;;2.80;1.05;;;;;;;;;;5054060;28;20369;-91
2022/08/21 18:39:09;;;;;;;2.73;1.10;;;;;;;;;;5053850;28;20452;-91
2022/08/21 18:41:35;;;;;;;2.20;1.10;;;;;;;;;;5053638;28;20412;-92
2022/08/21 18:44:04;;;;;;;1.83;1.13;;;;;;;;;;5053763;28;20385;-92
2022/08/21 18:46:33;;;;;;;1.55;0.90;;;;;;;;;;5053731;28;20400;-91
2022/08/21 18:48:59;;;;;;;2.38;1.08;;;;;;;;;;5053769;28;20416;-91
2022/08/21 18:51:25;;;;;;;2.28;0.90;;;;;;;;;;5053436;28;20792;-92
2022/08/21 18:53:53;;;;;;;3.70;1.10;;;;;;;;;;5053512;28;20484;-92
2022/08/21 18:56:20;;;;;;;1.92;1.00;;;;;;;;;;5053296;28;20447;-91
2022/08/21 18:58:46;;;;;;;2.53;1.02;;;;;;;;;;5053639;28;20410;-91
2022/08/21 19:01:12;;;;;;;2.70;0.90;;;;;;;;;;5052983;28;20398;-92
2022/08/21 19:03:38;;;;;;;2.50;1.30;;;;;;;;;;5053194;28;20483;-92
2022/08/21 19:06:05;;;;;;;2.97;1.17;;;;;;;;;;5053169;28;20410;-91
2022/08/21 19:08:34;;;;;;;1.80;1.10;;;;;;;;;;5053398;28;20439;-91
2022/08/21 19:11:03;;;;;;;2.88;1.30;;;;;;;;;;5052956;28;20382;-91
2022/08/21 19:13:32;;;;;;;1.63;1.10;;;;;;;;;;5053276;28;20432;-92
2022/08/21 19:16:02;;;;;;;1.85;1.10;;;;;;;;;;5019254;28;20376;-91
2022/08/21 19:18:29;;;;;;;2.50;1.20;;;;;;;;;;5053417;28;20384;-91
2022/08/21 19:20:55;;;;;;;2.83;1.35;;;;;;;;;;5053198;28;20402;-91
2022/08/21 19:23:23;;;;;;;2.17;1.75;;;;;;;;;;5053078;28;20619;-91
2022/08/21 19:25:49;;;;;;;2.27;1.50;;;;;;;;;;5035200;28;20486;-91
2022/08/21 19:28:18;;;;;;;1.77;1.40;;;;;;;;;;5053211;28;20463;-91
2022/08/21 19:30:48;;;;;;;3.75;2.10;;;;;;;;;;5052684;28;20412;-91
2022/08/21 19:33:16;;;;;;;2.60;1.90;;;;;;;;;;5034980;28;20410;-91
2022/08/21 19:35:42;;;;;;;2.33;1.50;;;;;;;;;;5034931;28;20464;-90
2022/08/21 19:38:08;;;;;;;2.38;1.60;;;;;;;;;;5035657;28;20520;-91
2022/08/21 19:40:34;;;;;;;1.70;1.55;;;;;;;;;;5052479;28;20448;-91
2022/08/21 19:43:03;;;;;;;1.85;1.40;;;;;;;;;;5053297;28;20405;-92
2022/08/21 19:45:37;;;;;;;2.78;1.70;;;;;;;;;;5053095;28;20387;-91
2022/08/21 19:48:06;;;;;;;2.00;1.70;;;;;;;;;;5034930;28;20814;-92
2022/08/21 19:50:32;;;;;;;3.25;2.00;;;;;;;;;;5034528;28;20944;-91
2022/08/21 19:52:58;;;;;;;2.70;1.73;;;;;;;;;;5052832;28;20455;-92
2022/08/21 19:55:24;;;;;;;3.63;1.60;;;;;;;;;;5052781;28;20374;-91
2022/08/21 19:57:51;;;;;;;2.55;1.52;;;;;;;;;;5052429;28;20376;-91
2022/08/21 20:00:18;;;;;;;2.45;1.70;;;;;;;;;;5034442;28;20382;-92
2022/08/21 20:02:44;;;;;;;2.88;1.55;;;;;;;;;;5052122;28;20966;-91